N979AE TISX-SMJP
Flight info
| Callsign | N979AE |
|---|---|
| Flight time | N/A |
| Altitude | 39000 |
| Route | HMLTN9 COY DCT SORRL DCT TOXUN DCT USABO DCT EDSIS DCT ROMIT |
| Aircraft | C750/M-SBDE3FGHRWXY/S |
Departure
| Time | N/A |
|---|---|
| Airport | Henry E. Rohlsen Airport (TISX) |
Arrival
| Time | 2026-04-23 03:11 |
|---|---|
| Airport | Johan Adolf Pengel International Airport (SMJP) |
| Time | Latitude | Longitude | Altitude | Speed | Heading |
|---|---|---|---|---|---|
| 2026-04-23 01:30 | 15.37015 | -62.07773 | 44989 ft | 495 kts | 139° |
| 2026-04-23 01:31 | 15.32298 | -62.02640 | 44992 ft | 495 kts | 139° |
| 2026-04-23 01:31 | 15.27553 | -61.97479 | 44993 ft | 495 kts | 139° |
| 2026-04-23 01:32 | 15.22792 | -61.92325 | 44982 ft | 493 kts | 140° |
| 2026-04-23 01:32 | 15.17474 | -61.87965 | 44995 ft | 486 kts | 148° |
| 2026-04-23 01:33 | 15.12968 | -61.84480 | 45000 ft | 487 kts | 148° |
| 2026-04-23 01:33 | 15.07524 | -61.80273 | 44998 ft | 488 kts | 148° |
| 2026-04-23 01:34 | 15.02078 | -61.76081 | 45005 ft | 488 kts | 148° |
| 2026-04-23 01:34 | 14.96631 | -61.71879 | 45000 ft | 488 kts | 148° |
| 2026-04-23 01:35 | 14.91180 | -61.67684 | 44994 ft | 488 kts | 148° |
| 2026-04-23 01:35 | 14.85732 | -61.63489 | 44992 ft | 488 kts | 148° |
| 2026-04-23 01:36 | 14.80314 | -61.59324 | 44993 ft | 488 kts | 148° |
| 2026-04-23 01:36 | 14.74862 | -61.55134 | 44979 ft | 488 kts | 148° |
| 2026-04-23 01:37 | 14.69417 | -61.50952 | 44983 ft | 488 kts | 148° |
| 2026-04-23 01:37 | 14.63969 | -61.46770 | 44983 ft | 488 kts | 148° |
| 2026-04-23 01:38 | 14.58515 | -61.42586 | 44982 ft | 488 kts | 148° |
| 2026-04-23 01:38 | 14.53069 | -61.38411 | 44981 ft | 488 kts | 148° |
| 2026-04-23 01:39 | 14.47612 | -61.34230 | 44982 ft | 488 kts | 148° |
| 2026-04-23 01:39 | 14.42214 | -61.30096 | 44974 ft | 485 kts | 148° |
| 2026-04-23 01:40 | 14.36803 | -61.25957 | 44984 ft | 484 kts | 147° |
| 2026-04-23 01:40 | 14.31393 | -61.21820 | 44982 ft | 484 kts | 147° |
| 2026-04-23 01:41 | 14.25982 | -61.17685 | 44986 ft | 484 kts | 147° |
| 2026-04-23 01:41 | 14.20569 | -61.13550 | 44987 ft | 484 kts | 147° |
| 2026-04-23 01:42 | 14.15157 | -61.09419 | 44987 ft | 484 kts | 147° |
| 2026-04-23 01:42 | 14.09742 | -61.05289 | 44989 ft | 484 kts | 147° |
| 2026-04-23 01:43 | 14.04311 | -61.01149 | 44992 ft | 487 kts | 148° |
| 2026-04-23 01:43 | 13.98866 | -60.96998 | 44992 ft | 486 kts | 148° |
| 2026-04-23 01:44 | 13.93429 | -60.92859 | 44990 ft | 486 kts | 148° |
| 2026-04-23 01:44 | 13.87988 | -60.88718 | 44990 ft | 486 kts | 148° |
| 2026-04-23 01:45 | 13.82586 | -60.84610 | 44987 ft | 486 kts | 148° |
| 2026-04-23 01:45 | 13.77138 | -60.80469 | 44986 ft | 486 kts | 148° |
| 2026-04-23 01:46 | 13.71698 | -60.76337 | 44988 ft | 486 kts | 148° |
| 2026-04-23 01:46 | 13.66216 | -60.72177 | 44985 ft | 493 kts | 148° |
| 2026-04-23 01:47 | 13.60689 | -60.67979 | 44990 ft | 492 kts | 148° |
| 2026-04-23 01:47 | 13.55071 | -60.64061 | 44993 ft | 491 kts | 150° |
| 2026-04-23 01:48 | 13.49406 | -60.60137 | 44994 ft | 491 kts | 150° |
| 2026-04-23 01:48 | 13.43741 | -60.56220 | 44994 ft | 491 kts | 150° |
| 2026-04-23 01:49 | 13.38071 | -60.52302 | 44985 ft | 491 kts | 150° |
| 2026-04-23 01:49 | 13.32399 | -60.48384 | 44985 ft | 491 kts | 149° |
| 2026-04-23 01:50 | 13.26731 | -60.44472 | 44986 ft | 491 kts | 150° |
| 2026-04-23 01:50 | 13.21066 | -60.40563 | 44986 ft | 490 kts | 150° |
| 2026-04-23 01:51 | 13.15400 | -60.36657 | 44996 ft | 490 kts | 150° |
| 2026-04-23 01:51 | 13.09739 | -60.32756 | 44996 ft | 490 kts | 150° |
| 2026-04-23 01:52 | 13.04073 | -60.28854 | 44996 ft | 491 kts | 150° |
| 2026-04-23 01:52 | 12.98414 | -60.24958 | 44993 ft | 490 kts | 149° |
| 2026-04-23 01:53 | 12.92753 | -60.21064 | 44997 ft | 490 kts | 149° |
| 2026-04-23 01:53 | 12.87120 | -60.17191 | 45000 ft | 490 kts | 149° |
| 2026-04-23 01:54 | 12.81461 | -60.13302 | 45000 ft | 490 kts | 149° |
| 2026-04-23 01:54 | 12.75797 | -60.09412 | 45000 ft | 490 kts | 149° |
| 2026-04-23 01:55 | 12.70135 | -60.05526 | 44995 ft | 490 kts | 149° |
| 2026-04-23 01:55 | 12.64468 | -60.01638 | 44995 ft | 490 kts | 149° |
| 2026-04-23 01:56 | 12.58807 | -59.97756 | 45000 ft | 490 kts | 149° |
| 2026-04-23 01:56 | 12.53141 | -59.93873 | 44992 ft | 490 kts | 149° |
| 2026-04-23 01:57 | 12.47511 | -59.90017 | 44995 ft | 490 kts | 149° |
| 2026-04-23 01:57 | 12.41846 | -59.86139 | 44992 ft | 491 kts | 149° |
| 2026-04-23 01:58 | 12.36174 | -59.82258 | 44987 ft | 490 kts | 149° |
| 2026-04-23 01:58 | 12.30519 | -59.78390 | 44987 ft | 486 kts | 149° |
| 2026-04-23 01:59 | 12.24883 | -59.74540 | 44987 ft | 488 kts | 149° |
| 2026-04-23 01:59 | 12.19244 | -59.70686 | 44993 ft | 487 kts | 149° |
| 2026-04-23 02:00 | 12.13605 | -59.66836 | 44993 ft | 487 kts | 149° |
| 2026-04-23 02:00 | 12.07965 | -59.62987 | 44994 ft | 487 kts | 149° |
| 2026-04-23 02:01 | 12.02359 | -59.59163 | 45000 ft | 487 kts | 149° |
| 2026-04-23 02:01 | 11.96732 | -59.55327 | 44998 ft | 484 kts | 149° |
| 2026-04-23 02:02 | 11.91130 | -59.51511 | 44999 ft | 485 kts | 149° |
| 2026-04-23 02:02 | 11.85515 | -59.47686 | 45000 ft | 485 kts | 149° |
| 2026-04-23 02:03 | 11.79905 | -59.43868 | 44998 ft | 485 kts | 149° |
| 2026-04-23 02:03 | 11.74287 | -59.40045 | 44998 ft | 485 kts | 149° |
| 2026-04-23 02:04 | 11.68676 | -59.36229 | 45001 ft | 485 kts | 149° |
| 2026-04-23 02:04 | 11.63097 | -59.32438 | 45003 ft | 484 kts | 149° |
| 2026-04-23 02:05 | 11.57493 | -59.28631 | 44998 ft | 484 kts | 148° |
| 2026-04-23 02:05 | 11.51890 | -59.24826 | 45000 ft | 484 kts | 148° |
| 2026-04-23 02:06 | 11.46293 | -59.21027 | 45000 ft | 483 kts | 148° |
| 2026-04-23 02:06 | 11.40693 | -59.17229 | 45000 ft | 483 kts | 148° |
| 2026-04-23 02:07 | 11.35123 | -59.13452 | 45001 ft | 483 kts | 148° |
| 2026-04-23 02:07 | 11.29524 | -59.09657 | 44996 ft | 484 kts | 148° |
| 2026-04-23 02:08 | 11.23917 | -59.05859 | 44998 ft | 483 kts | 148° |
| 2026-04-23 02:08 | 11.18308 | -59.02062 | 44998 ft | 483 kts | 148° |
| 2026-04-23 02:09 | 11.12707 | -58.98272 | 44999 ft | 483 kts | 148° |
| 2026-04-23 02:09 | 11.07105 | -58.94482 | 44996 ft | 483 kts | 148° |
| 2026-04-23 02:10 | 11.01502 | -58.90694 | 44995 ft | 483 kts | 148° |
| 2026-04-23 02:10 | 10.95900 | -58.86909 | 44999 ft | 485 kts | 148° |
| 2026-04-23 02:11 | 10.90270 | -58.83105 | 44997 ft | 485 kts | 148° |
| 2026-04-23 02:11 | 10.84685 | -58.79334 | 44997 ft | 485 kts | 148° |
| 2026-04-23 02:12 | 10.79059 | -58.75537 | 44998 ft | 485 kts | 148° |
| 2026-04-23 02:12 | 10.73438 | -58.71745 | 44998 ft | 485 kts | 148° |
| 2026-04-23 02:13 | 10.67806 | -58.67949 | 44998 ft | 485 kts | 148° |
| 2026-04-23 02:13 | 10.62180 | -58.64157 | 44994 ft | 485 kts | 148° |
| 2026-04-23 02:14 | 10.56556 | -58.60368 | 44995 ft | 485 kts | 148° |
| 2026-04-23 02:14 | 10.50963 | -58.56602 | 44996 ft | 485 kts | 148° |
| 2026-04-23 02:15 | 10.42518 | -58.50919 | 44995 ft | 485 kts | 148° |
| 2026-04-23 02:16 | 10.36892 | -58.47135 | 44995 ft | 485 kts | 148° |
| 2026-04-23 02:16 | 10.31240 | -58.43335 | 44996 ft | 487 kts | 148° |
| 2026-04-23 02:17 | 10.25594 | -58.39540 | 44999 ft | 486 kts | 148° |
| 2026-04-23 02:17 | 10.19953 | -58.35752 | 44996 ft | 486 kts | 148° |
| 2026-04-23 02:18 | 10.14349 | -58.31989 | 44996 ft | 486 kts | 148° |
| 2026-04-23 02:18 | 10.08708 | -58.28203 | 44996 ft | 486 kts | 148° |
| 2026-04-23 02:19 | 10.03068 | -58.24419 | 44997 ft | 486 kts | 148° |
| 2026-04-23 02:19 | 9.97424 | -58.20635 | 44997 ft | 486 kts | 148° |
| 2026-04-23 02:20 | 9.91785 | -58.16855 | 45009 ft | 485 kts | 148° |
| 2026-04-23 02:20 | 9.86154 | -58.13082 | 45010 ft | 485 kts | 148° |
| 2026-04-23 02:21 | 9.80513 | -58.09304 | 45013 ft | 485 kts | 148° |
| 2026-04-23 02:21 | 9.74915 | -58.05557 | 45010 ft | 485 kts | 148° |
| 2026-04-23 02:22 | 9.69279 | -58.01785 | 45007 ft | 485 kts | 148° |
| 2026-04-23 02:22 | 9.63637 | -57.98011 | 45008 ft | 485 kts | 148° |
| 2026-04-23 02:23 | 9.58016 | -57.94252 | 45002 ft | 481 kts | 148° |
| 2026-04-23 02:23 | 9.52445 | -57.90529 | 45002 ft | 479 kts | 148° |
| 2026-04-23 02:24 | 9.47822 | -57.87441 | 44998 ft | 479 kts | 148° |
| 2026-04-23 02:24 | 9.42251 | -57.83719 | 45000 ft | 479 kts | 148° |
| 2026-04-23 02:25 | 9.36681 | -57.80001 | 44999 ft | 479 kts | 148° |
| 2026-04-23 02:25 | 9.31117 | -57.76288 | 44998 ft | 479 kts | 148° |
| 2026-04-23 02:26 | 9.25547 | -57.72572 | 45003 ft | 479 kts | 148° |
| 2026-04-23 02:26 | 9.19979 | -57.68859 | 45000 ft | 479 kts | 148° |
| 2026-04-23 02:27 | 9.14404 | -57.65143 | 44997 ft | 479 kts | 148° |
| 2026-04-23 02:27 | 9.08866 | -57.61452 | 44999 ft | 475 kts | 148° |
| 2026-04-23 02:28 | 9.03328 | -57.57765 | 44999 ft | 477 kts | 148° |
| 2026-04-23 02:28 | 8.97824 | -57.54099 | 44998 ft | 476 kts | 148° |
| 2026-04-23 02:29 | 8.92292 | -57.50415 | 45004 ft | 474 kts | 148° |
| 2026-04-23 02:29 | 8.87049 | -57.46339 | 44995 ft | 476 kts | 143° |
| 2026-04-23 02:30 | 8.81832 | -57.42207 | 44999 ft | 476 kts | 144° |
| 2026-04-23 02:30 | 8.76619 | -57.38081 | 44996 ft | 476 kts | 143° |
| 2026-04-23 02:31 | 8.71396 | -57.33944 | 44995 ft | 476 kts | 144° |
| 2026-04-23 02:31 | 8.66180 | -57.29817 | 44995 ft | 476 kts | 144° |
| 2026-04-23 02:32 | 8.60958 | -57.25685 | 44996 ft | 476 kts | 144° |
| 2026-04-23 02:32 | 8.55763 | -57.21576 | 45002 ft | 474 kts | 144° |
| 2026-04-23 02:33 | 8.50562 | -57.17465 | 45000 ft | 474 kts | 144° |
| 2026-04-23 02:33 | 8.45397 | -57.13383 | 44997 ft | 474 kts | 144° |
| 2026-04-23 02:34 | 8.40202 | -57.09279 | 45000 ft | 472 kts | 144° |
| 2026-04-23 02:34 | 8.35031 | -57.05196 | 45003 ft | 472 kts | 144° |
| 2026-04-23 02:35 | 8.29848 | -57.01103 | 45005 ft | 472 kts | 144° |
| 2026-04-23 02:35 | 8.24675 | -56.97020 | 44999 ft | 471 kts | 144° |
| 2026-04-23 02:36 | 8.19547 | -56.92976 | 44999 ft | 471 kts | 144° |
| 2026-04-23 02:36 | 8.14376 | -56.88898 | 45001 ft | 471 kts | 144° |
| 2026-04-23 02:37 | 8.09206 | -56.84822 | 45000 ft | 471 kts | 144° |
| 2026-04-23 02:37 | 8.04020 | -56.80735 | 44998 ft | 476 kts | 144° |
| 2026-04-23 02:38 | 7.98811 | -56.76629 | 44999 ft | 474 kts | 144° |
| 2026-04-23 02:38 | 7.93606 | -56.72531 | 45000 ft | 474 kts | 144° |
| 2026-04-23 02:39 | 7.88366 | -56.68407 | 44989 ft | 480 kts | 144° |
| 2026-04-23 02:39 | 7.83145 | -56.64296 | 44988 ft | 479 kts | 144° |
| 2026-04-23 02:40 | 7.77895 | -56.60165 | 44988 ft | 479 kts | 144° |
| 2026-04-23 02:40 | 7.72646 | -56.56037 | 44997 ft | 478 kts | 144° |
| 2026-04-23 02:41 | 7.67411 | -56.51920 | 44986 ft | 478 kts | 144° |
| 2026-04-23 02:41 | 7.62167 | -56.47798 | 44984 ft | 477 kts | 144° |
| 2026-04-23 02:42 | 7.56937 | -56.43689 | 44989 ft | 474 kts | 144° |
| 2026-04-23 02:42 | 7.51735 | -56.39603 | 44985 ft | 475 kts | 144° |
| 2026-04-23 02:43 | 7.46526 | -56.35511 | 44990 ft | 475 kts | 144° |
| 2026-04-23 02:43 | 7.41345 | -56.31444 | 44992 ft | 475 kts | 144° |
| 2026-04-23 02:44 | 7.36106 | -56.27334 | 44989 ft | 481 kts | 144° |
| 2026-04-23 02:44 | 7.30859 | -56.23213 | 44352 ft | 469 kts | 144° |
| 2026-04-23 02:44 | 7.28317 | -56.21218 | 43744 ft | 458 kts | 144° |
| 2026-04-23 02:45 | 7.25825 | -56.19266 | 43138 ft | 450 kts | 144° |
| 2026-04-23 02:45 | 7.23360 | -56.17336 | 42563 ft | 449 kts | 144° |
| 2026-04-23 02:45 | 7.20877 | -56.15390 | 41964 ft | 455 kts | 144° |
| 2026-04-23 02:45 | 7.18362 | -56.13417 | 41363 ft | 461 kts | 144° |
| 2026-04-23 02:46 | 7.15818 | -56.11423 | 40752 ft | 465 kts | 143° |
| 2026-04-23 02:46 | 7.13256 | -56.09414 | 40137 ft | 468 kts | 143° |
| 2026-04-23 02:46 | 7.10688 | -56.07403 | 39523 ft | 469 kts | 143° |
| 2026-04-23 02:46 | 7.08099 | -56.05374 | 38900 ft | 471 kts | 143° |
| 2026-04-23 02:47 | 7.05507 | -56.03343 | 38231 ft | 473 kts | 143° |
| 2026-04-23 02:47 | 7.02910 | -56.01309 | 37609 ft | 474 kts | 143° |
| 2026-04-23 02:47 | 7.00301 | -55.99266 | 36983 ft | 476 kts | 143° |
| 2026-04-23 02:47 | 6.97678 | -55.97212 | 36353 ft | 478 kts | 143° |
| 2026-04-23 02:48 | 6.95050 | -55.95154 | 35718 ft | 480 kts | 143° |
| 2026-04-23 02:48 | 6.92407 | -55.93085 | 35086 ft | 482 kts | 143° |
| 2026-04-23 02:48 | 6.89807 | -55.91050 | 34460 ft | 483 kts | 142° |
| 2026-04-23 02:48 | 6.87183 | -55.88997 | 33809 ft | 484 kts | 142° |
| 2026-04-23 02:49 | 6.84516 | -55.86910 | 33155 ft | 486 kts | 142° |
| 2026-04-23 02:49 | 6.81837 | -55.84814 | 32512 ft | 489 kts | 142° |
| 2026-04-23 02:49 | 6.79140 | -55.82704 | 31864 ft | 492 kts | 142° |
| 2026-04-23 02:49 | 6.76427 | -55.80582 | 31212 ft | 495 kts | 142° |
| 2026-04-23 02:50 | 6.73700 | -55.78450 | 30559 ft | 498 kts | 142° |
| 2026-04-23 02:50 | 6.70975 | -55.76319 | 29879 ft | 495 kts | 142° |
| 2026-04-23 02:50 | 6.68274 | -55.74208 | 29214 ft | 489 kts | 142° |
| 2026-04-23 02:50 | 6.65590 | -55.72109 | 28567 ft | 486 kts | 142° |
| 2026-04-23 02:51 | 6.62932 | -55.70031 | 27930 ft | 482 kts | 142° |
| 2026-04-23 02:51 | 6.60294 | -55.67971 | 27299 ft | 478 kts | 142° |
| 2026-04-23 02:51 | 6.57671 | -55.65922 | 26668 ft | 475 kts | 141° |
| 2026-04-23 02:51 | 6.55075 | -55.63893 | 26046 ft | 471 kts | 141° |
| 2026-04-23 02:52 | 6.52497 | -55.61879 | 25424 ft | 467 kts | 141° |
| 2026-04-23 02:52 | 6.49967 | -55.59903 | 24821 ft | 464 kts | 141° |
| 2026-04-23 02:52 | 6.47425 | -55.57918 | 24209 ft | 461 kts | 141° |
| 2026-04-23 02:52 | 6.44893 | -55.55942 | 23602 ft | 458 kts | 141° |
| 2026-04-23 02:53 | 6.42388 | -55.53986 | 22950 ft | 454 kts | 141° |
| 2026-04-23 02:53 | 6.39904 | -55.52047 | 22353 ft | 450 kts | 141° |
| 2026-04-23 02:53 | 6.37442 | -55.50125 | 21762 ft | 446 kts | 141° |
| 2026-04-23 02:53 | 6.34997 | -55.48218 | 21175 ft | 443 kts | 141° |
| 2026-04-23 02:54 | 6.32571 | -55.46323 | 20593 ft | 440 kts | 141° |
| 2026-04-23 02:54 | 6.30161 | -55.44443 | 20016 ft | 437 kts | 141° |
| 2026-04-23 02:54 | 6.27765 | -55.42574 | 19441 ft | 434 kts | 141° |
| 2026-04-23 02:54 | 6.25392 | -55.40723 | 18872 ft | 431 kts | 141° |
| 2026-04-23 02:55 | 6.23028 | -55.38878 | 18306 ft | 428 kts | 142° |
| 2026-04-23 02:55 | 6.20685 | -55.37052 | 17701 ft | 424 kts | 142° |
| 2026-04-23 02:55 | 6.18365 | -55.35243 | 17144 ft | 420 kts | 142° |
| 2026-04-23 02:55 | 6.16072 | -55.33455 | 16591 ft | 416 kts | 142° |
| 2026-04-23 02:56 | 6.13792 | -55.31678 | 16046 ft | 412 kts | 142° |
| 2026-04-23 02:56 | 6.11568 | -55.29944 | 15511 ft | 408 kts | 142° |
| 2026-04-23 02:56 | 6.09338 | -55.28205 | 14977 ft | 404 kts | 142° |
| 2026-04-23 02:56 | 6.07126 | -55.26482 | 14449 ft | 400 kts | 142° |
| 2026-04-23 02:57 | 6.04932 | -55.24772 | 13920 ft | 397 kts | 142° |
| 2026-04-23 02:57 | 6.02762 | -55.23081 | 13385 ft | 394 kts | 142° |
| 2026-04-23 02:57 | 6.00606 | -55.21402 | 12865 ft | 390 kts | 142° |
| 2026-04-23 02:57 | 5.98470 | -55.19738 | 12354 ft | 387 kts | 141° |
| 2026-04-23 02:58 | 5.96369 | -55.18102 | 11846 ft | 371 kts | 141° |
| 2026-04-23 02:58 | 5.94404 | -55.16572 | 11375 ft | 344 kts | 141° |
| 2026-04-23 02:58 | 5.92572 | -55.15152 | 10936 ft | 322 kts | 142° |
| 2026-04-23 02:58 | 5.90680 | -55.14066 | 10513 ft | 304 kts | 153° |
| 2026-04-23 02:59 | 5.88791 | -55.13203 | 10138 ft | 294 kts | 155° |
| 2026-04-23 02:59 | 5.86943 | -55.12356 | 9744 ft | 290 kts | 154° |
| 2026-04-23 02:59 | 5.85130 | -55.11492 | 9354 ft | 287 kts | 153° |
| 2026-04-23 02:59 | 5.83333 | -55.10635 | 8976 ft | 285 kts | 153° |
| 2026-04-23 03:00 | 5.81567 | -55.09804 | 8606 ft | 283 kts | 154° |
| 2026-04-23 03:00 | 5.79788 | -55.08968 | 8232 ft | 281 kts | 154° |
| 2026-04-23 03:00 | 5.78022 | -55.08134 | 7865 ft | 280 kts | 153° |
| 2026-04-23 03:00 | 5.76269 | -55.07307 | 7496 ft | 277 kts | 153° |
| 2026-04-23 03:01 | 5.74527 | -55.06486 | 7129 ft | 275 kts | 153° |
| 2026-04-23 03:01 | 5.72798 | -55.05671 | 6770 ft | 274 kts | 153° |
| 2026-04-23 03:01 | 5.71078 | -55.04860 | 6409 ft | 272 kts | 153° |
| 2026-04-23 03:01 | 5.69372 | -55.04056 | 6030 ft | 270 kts | 153° |
| 2026-04-23 03:02 | 5.67704 | -55.03270 | 5683 ft | 258 kts | 153° |
| 2026-04-23 03:02 | 5.66110 | -55.02520 | 5341 ft | 247 kts | 153° |
| 2026-04-23 03:02 | 5.64581 | -55.01799 | 5019 ft | 238 kts | 153° |
| 2026-04-23 03:02 | 5.63105 | -55.01103 | 4709 ft | 231 kts | 153° |
| 2026-04-23 03:03 | 5.61670 | -55.00427 | 4403 ft | 225 kts | 153° |
| 2026-04-23 03:03 | 5.60271 | -54.99768 | 4111 ft | 219 kts | 153° |
| 2026-04-23 03:03 | 5.58913 | -54.99127 | 3827 ft | 213 kts | 153° |
| 2026-04-23 03:03 | 5.57580 | -54.98500 | 3549 ft | 209 kts | 153° |
| 2026-04-23 03:04 | 5.56271 | -54.97883 | 3278 ft | 207 kts | 153° |
| 2026-04-23 03:04 | 5.54953 | -54.97415 | 2955 ft | 203 kts | 171° |
| 2026-04-23 03:04 | 5.53617 | -54.97655 | 2903 ft | 185 kts | 196° |
| 2026-04-23 03:04 | 5.52486 | -54.98064 | 2989 ft | 163 kts | 195° |
| 2026-04-23 03:05 | 5.51424 | -54.98436 | 3002 ft | 160 kts | 195° |
| 2026-04-23 03:05 | 5.50368 | -54.98809 | 3004 ft | 161 kts | 195° |
| 2026-04-23 03:05 | 5.49318 | -54.99182 | 3006 ft | 161 kts | 195° |
| 2026-04-23 03:05 | 5.48264 | -54.99559 | 2998 ft | 161 kts | 196° |
| 2026-04-23 03:06 | 5.47211 | -54.99934 | 2994 ft | 161 kts | 195° |
| 2026-04-23 03:06 | 5.46210 | -55.00477 | 2860 ft | 170 kts | 219° |
| 2026-04-23 03:06 | 5.45545 | -55.01450 | 2717 ft | 168 kts | 246° |
| 2026-04-23 03:06 | 5.45376 | -55.02573 | 2576 ft | 163 kts | 270° |
| 2026-04-23 03:07 | 5.45380 | -55.03730 | 2459 ft | 167 kts | 269° |
| 2026-04-23 03:07 | 5.45365 | -55.04896 | 2318 ft | 167 kts | 269° |
| 2026-04-23 03:07 | 5.45356 | -55.06071 | 2186 ft | 170 kts | 269° |
| 2026-04-23 03:07 | 5.45349 | -55.07219 | 1970 ft | 159 kts | 269° |
| 2026-04-23 03:08 | 5.45344 | -55.08270 | 1765 ft | 144 kts | 269° |
| 2026-04-23 03:08 | 5.45339 | -55.09263 | 1582 ft | 141 kts | 269° |
| 2026-04-23 03:08 | 5.45334 | -55.10239 | 1399 ft | 139 kts | 269° |
| 2026-04-23 03:08 | 5.45328 | -55.11200 | 1223 ft | 137 kts | 269° |
| 2026-04-23 03:09 | 5.45323 | -55.12148 | 1051 ft | 136 kts | 270° |
| 2026-04-23 03:09 | 5.45318 | -55.13090 | 879 ft | 133 kts | 270° |
| 2026-04-23 03:09 | 5.45313 | -55.14011 | 713 ft | 130 kts | 270° |
| 2026-04-23 03:09 | 5.45309 | -55.14900 | 545 ft | 128 kts | 270° |
| 2026-04-23 03:10 | 5.45304 | -55.15787 | 376 ft | 126 kts | 270° |
| 2026-04-23 03:10 | 5.45298 | -55.16666 | 192 ft | 126 kts | 270° |
| 2026-04-23 03:10 | 5.45295 | -55.17530 | 61 ft | 118 kts | 270° |
| 2026-04-23 03:10 | 5.45293 | -55.18129 | 57 ft | 57 kts | 270° |
| 2026-04-23 03:11 | 5.45291 | -55.18517 | 55 ft | 52 kts | 269° |
| 2026-04-23 03:11 | 5.45289 | -55.18861 | 55 ft | 47 kts | 270° |
| 2026-04-23 03:11 | 5.45287 | -55.19180 | 56 ft | 44 kts | 270° |
| 2026-04-23 03:11 | 5.45286 | -55.19479 | 58 ft | 41 kts | 270° |
| 2026-04-23 03:12 | 5.45287 | -55.19692 | 57 ft | 22 kts | 269° |
| 2026-04-23 03:12 | 5.45285 | -55.19808 | 57 ft | 15 kts | 270° |
| 2026-04-23 03:12 | 5.45285 | -55.19908 | 57 ft | 14 kts | 270° |
| 2026-04-23 03:12 | 5.45285 | -55.19975 | 56 ft | 15 kts | 270° |
| 2026-04-23 03:13 | 5.45307 | -55.20068 | 52 ft | 14 kts | 331° |
| 2026-04-23 03:13 | 5.45395 | -55.20057 | 55 ft | 13 kts | 21° |
| 2026-04-23 03:13 | 5.45458 | -55.20011 | 55 ft | 11 kts | 89° |
| 2026-04-23 03:13 | 5.45460 | -55.19940 | 53 ft | 10 kts | 67° |
| 2026-04-23 03:14 | 5.45504 | -55.19892 | 55 ft | 9 kts | 40° |
| 2026-04-23 03:14 | 5.45578 | -55.19822 | 55 ft | 17 kts | 57° |
| 2026-04-23 03:14 | 5.45619 | -55.19713 | 53 ft | 16 kts | 63° |
| 2026-04-23 03:14 | 5.45596 | -55.19634 | 56 ft | 9 kts | 174° |
| 2026-04-23 03:15 | 5.45585 | -55.19634 | 56 ft | 0 kts | 180° |